Search for airport 
image banner adimage banner adimage banner ad
image banner ad

CL76 - U S Naval Hospital San Diego

Located in San Diego, United States

ICAO - CL76, IATA -

Data provided by Airmate  

General information

Coordinates: N32°43'30" W117°8'39"
Elevation is 200 feet MSL.
Magnetic variation is 13° East
View others Airports in California

Operational data

Special qualification required
Current time UTC:
Current local time:
Weather at : KSAN - San Diego Intl ( 4 km )
METAR: KSAN 270551Z 33005KT 10SM OVC011 22/18 A2998 RMK AO2 SLP151 T02220183 10228 20211 51007 $
TAF: KSAN 270520Z 2706/2812 VRB05KT 6SM HZ OVC009 TEMPO 2713/2715 2SM BR OVC004 FM271800 27009KT P6SM BKN015
View NOTAMs / SUP AIP / TFR affecting this airport [VIEW]
Communications frequencies: [VIEW]

Runways:

Airport contact information

Address: San Diego United States

Satellite view of CL76